Página principal
METAR-TAF:

METAR-TAF

Aeroportos :

Aeroporto Internacional de Pequim-Capital

Pequim, China

latitude: 39-56N, longitude: 116-17E, altura: 55 m

Observação actual do tempo

O boletim foi feito há 27 minutos, às 19:00 UTC
Vento calmo
Temperatura 2°C
Humidade 75%
Pressão 1029 hPa
Visibilidade 10 km ou mais
sem nuvens abaixo de 1500 metros e sem cumulonimbus

METAR: ZBAA 201900Z 00000MPS CAVOK 02/M02 Q1029 NOSIG

Hora: 03:27 (19:27 UTC)

Previsão

O boletim foi feito há 4 horas e 7 minutos, às 15:20 UTC
Previsão válida de 20 às 18 UTC a 21 às 18 UTC
Vento 8 kt de noroeste
Visibilidade 10 km ou mais
sem nuvens abaixo de 1500 metros e sem cumulonimbus

TAF: ZBAA 201520Z 2018/2118 32004MPS CAVOK TX09/2107Z TNM02/21Z

Observações e previsões do tempo de mais de 4000 aeroportos (mensagens METAR e TAF).

As estações disponíveis são os pontos amarelos e vermelhos sobre o mapa.

Mova o rato sobre o mapa para ver o nome da estação.

Depois clique no ponto para visualizar as observações e previsões meteorológicas.

Para alterar o mapa : clique nos botões verdes com uma cruz preta para aumentar o zoom; no botão verde com uma pitada de zoom; ou nas setas verdes para mapas adjacentes.


METAR-TAF: